createdAt,value
2019-06-27T00:00:21.015Z,20.80
2019-06-27T00:02:50.700Z,20.80
2019-06-27T00:05:20.168Z,21.00
2019-06-27T00:07:49.675Z,21.00
2019-06-27T00:10:19.215Z,21.00
2019-06-27T00:12:48.871Z,20.90
2019-06-27T00:15:18.539Z,20.90
2019-06-27T00:17:48.061Z,20.80
2019-06-27T00:20:17.717Z,20.70
2019-06-27T00:22:47.376Z,20.70
2019-06-27T00:25:16.836Z,20.70
2019-06-27T00:27:46.482Z,20.70
2019-06-27T00:30:15.967Z,20.70
2019-06-27T00:32:45.675Z,20.70
2019-06-27T00:35:15.526Z,20.70
2019-06-27T00:37:44.906Z,20.60
2019-06-27T00:40:14.538Z,20.40
2019-06-27T00:42:43.910Z,20.40
2019-06-27T00:45:13.586Z,20.40
2019-06-27T00:47:42.894Z,20.40
2019-06-27T00:50:13.013Z,20.30
2019-06-27T00:52:43.085Z,20.30
2019-06-27T00:55:12.450Z,20.20
2019-06-27T00:57:41.878Z,20.10
2019-06-27T01:00:13.187Z,20.20
2019-06-27T01:02:42.717Z,20.20
2019-06-27T01:05:12.316Z,20.10
2019-06-27T01:07:42.060Z,20.10
2019-06-27T01:10:11.636Z,19.90
2019-06-27T01:12:41.032Z,20.10
2019-06-27T01:15:10.845Z,20.00
2019-06-27T01:17:40.362Z,20.10
2019-06-27T01:20:10.316Z,20.10
2019-06-27T01:22:39.666Z,20.10
2019-06-27T01:25:09.278Z,20.10
2019-06-27T01:27:38.695Z,20.00
2019-06-27T01:30:10.233Z,20.00
2019-06-27T01:32:39.600Z,19.80
2019-06-27T01:35:09.476Z,19.80
2019-06-27T01:37:38.842Z,19.80
2019-06-27T01:40:08.958Z,19.90
2019-06-27T01:42:38.627Z,19.80
2019-06-27T01:45:18.100Z,19.80
2019-06-27T01:47:47.472Z,19.70
2019-06-27T01:50:17.229Z,19.70
2019-06-27T01:52:46.727Z,19.60
2019-06-27T01:55:16.153Z,19.50
2019-06-27T01:57:47.042Z,19.50
2019-06-27T02:00:18.114Z,19.50
2019-06-27T02:02:47.494Z,19.50
2019-06-27T02:05:17.336Z,19.60
2019-06-27T02:07:46.694Z,19.50
2019-06-27T02:10:16.446Z,19.40
2019-06-27T02:12:45.816Z,19.30
2019-06-27T02:15:17.187Z,19.30
2019-06-27T02:17:47.321Z,19.30
2019-06-27T02:20:17.503Z,19.30
2019-06-27T02:22:46.958Z,19.30
2019-06-27T02:25:18.510Z,19.30
2019-06-27T02:28:02.589Z,19.20
2019-06-27T02:30:34.176Z,19.20
2019-06-27T02:33:03.639Z,19.20
2019-06-27T02:35:33.367Z,19.20
2019-06-27T02:38:02.860Z,19.10
2019-06-27T02:40:32.542Z,19.10
2019-06-27T02:43:01.906Z,19.10
2019-06-27T02:45:31.472Z,19.10
2019-06-27T02:48:01.024Z,19.00
2019-06-27T02:50:30.808Z,19.00
2019-06-27T02:53:00.177Z,18.90
2019-06-27T02:55:29.725Z,18.90
2019-06-27T02:57:59.218Z,18.90
2019-06-27T03:00:28.720Z,19.00
2019-06-27T03:02:58.466Z,18.90
2019-06-27T03:05:27.895Z,18.90
2019-06-27T03:07:57.357Z,18.80
2019-06-27T03:10:27.107Z,18.90
2019-06-27T03:12:56.609Z,18.80
2019-06-27T03:15:26.173Z,18.80
2019-06-27T03:17:55.729Z,18.70
2019-06-27T03:20:25.536Z,18.70
2019-06-27T03:22:54.893Z,18.70
2019-06-27T03:25:24.362Z,18.60
2019-06-27T03:27:53.817Z,18.70
2019-06-27T03:30:23.250Z,18.70
2019-06-27T03:32:52.731Z,18.70
2019-06-27T03:35:22.029Z,18.70
2019-06-27T03:37:51.379Z,18.70
2019-06-27T03:40:21.454Z,18.70
2019-06-27T03:42:51.115Z,18.60
2019-06-27T03:45:20.624Z,18.60
2019-06-27T03:47:50.275Z,18.60
2019-06-27T03:50:19.704Z,18.70
2019-06-27T03:52:49.288Z,18.60
2019-06-27T03:55:18.767Z,18.70
2019-06-27T03:57:48.328Z,18.70
2019-06-27T04:00:24.094Z,18.60
2019-06-27T04:02:53.514Z,18.70
2019-06-27T04:05:22.892Z,18.70
2019-06-27T04:07:52.541Z,18.70
2019-06-27T04:10:21.883Z,18.70
2019-06-27T04:12:51.442Z,18.70
2019-06-27T04:15:21.147Z,18.80
2019-06-27T04:17:50.564Z,18.70
2019-06-27T04:20:20.213Z,18.80
2019-06-27T04:22:49.804Z,19.10
2019-06-27T04:25:19.259Z,19.10
2019-06-27T04:27:48.863Z,19.10
2019-06-27T04:30:18.391Z,19.20
2019-06-27T04:32:48.075Z,19.20
2019-06-27T04:35:17.564Z,19.20
2019-06-27T04:37:46.949Z,19.10
2019-06-27T04:40:16.799Z,19.20
2019-06-27T04:42:46.344Z,19.20
2019-06-27T04:45:15.708Z,19.20
2019-06-27T04:47:45.232Z,19.30
2019-06-27T04:50:15.052Z,19.40
2019-06-27T04:52:44.510Z,19.50
2019-06-27T04:55:14.691Z,19.50
2019-06-27T04:57:44.202Z,19.60
2019-06-27T05:00:19.832Z,19.70
2019-06-27T05:02:49.226Z,19.70
2019-06-27T05:05:18.762Z,19.80
2019-06-27T05:07:48.405Z,19.90
2019-06-27T05:10:17.972Z,20.00
2019-06-27T05:12:47.409Z,20.20
2019-06-27T05:15:17.106Z,20.30
2019-06-27T05:17:46.639Z,20.40
2019-06-27T05:20:16.222Z,20.50
2019-06-27T05:22:46.184Z,20.70
2019-06-27T05:25:15.712Z,20.80
2019-06-27T05:27:45.021Z,21.00
2019-06-27T05:30:14.382Z,21.20
2019-06-27T05:32:44.033Z,21.30
2019-06-27T05:35:13.577Z,21.50
2019-06-27T05:37:42.975Z,21.60
2019-06-27T05:40:12.691Z,21.80
2019-06-27T05:42:42.221Z,22.00
2019-06-27T05:45:11.877Z,22.30
2019-06-27T05:47:41.217Z,22.40
2019-06-27T05:50:11.056Z,22.60
2019-06-27T05:52:40.475Z,22.80
2019-06-27T05:55:09.988Z,22.80
2019-06-27T05:57:39.315Z,22.90
2019-06-27T06:00:26.017Z,23.10
2019-06-27T06:02:40.792Z,23.10
2019-06-27T06:05:10.360Z,23.30
2019-06-27T06:07:39.844Z,23.50
2019-06-27T06:10:09.479Z,23.60
2019-06-27T06:12:38.805Z,23.80
2019-06-27T06:15:08.664Z,24.00
2019-06-27T06:17:38.017Z,24.20
2019-06-27T06:20:08.209Z,24.40
2019-06-27T06:22:37.714Z,24.60
2019-06-27T06:25:07.710Z,24.60
2019-06-27T06:27:37.055Z,24.60
2019-06-27T06:30:08.233Z,24.80
2019-06-27T06:32:37.938Z,24.90
2019-06-27T06:35:07.624Z,24.90
2019-06-27T06:37:36.995Z,25.00
2019-06-27T06:40:06.690Z,25.00
2019-06-27T06:42:36.192Z,25.10
2019-06-27T06:45:05.971Z,25.20
2019-06-27T06:47:35.389Z,25.30
2019-06-27T06:50:05.058Z,25.40
2019-06-27T06:52:34.564Z,25.30
2019-06-27T06:55:03.910Z,25.30
2019-06-27T06:57:33.289Z,25.40
2019-06-27T07:00:03.018Z,25.30
2019-06-27T07:02:32.434Z,25.40
2019-06-27T07:05:01.947Z,25.50
2019-06-27T07:07:31.653Z,25.50
2019-06-27T07:10:01.191Z,25.60
2019-06-27T07:12:30.714Z,25.70
2019-06-27T07:15:00.058Z,25.80
2019-06-27T07:17:29.697Z,25.70
2019-06-27T07:19:59.224Z,25.70
2019-06-27T07:22:28.851Z,25.70
2019-06-27T07:24:58.623Z,25.80
2019-06-27T07:27:28.014Z,25.80
2019-06-27T07:29:57.629Z,25.80
2019-06-27T07:32:27.166Z,25.90
2019-06-27T07:34:56.544Z,25.90
2019-06-27T07:37:26.880Z,26.00
2019-06-27T07:39:56.766Z,26.20
2019-06-27T07:42:26.238Z,26.40
2019-06-27T07:44:55.644Z,26.50
2019-06-27T07:47:25.199Z,26.60
2019-06-27T07:49:55.097Z,26.50
2019-06-27T07:52:24.450Z,26.50
2019-06-27T07:54:54.075Z,26.40
2019-06-27T07:57:23.506Z,26.40
2019-06-27T07:59:53.152Z,26.50
2019-06-27T08:02:22.792Z,26.60
2019-06-27T08:04:52.322Z,26.50
2019-06-27T08:07:21.707Z,26.70
2019-06-27T08:09:51.428Z,26.80
2019-06-27T08:12:21.098Z,26.90
2019-06-27T08:14:50.513Z,26.80
2019-06-27T08:17:20.791Z,26.70
2019-06-27T08:19:50.354Z,26.60
2019-06-27T08:22:22.256Z,26.60
2019-06-27T08:24:51.649Z,26.50
2019-06-27T08:27:21.853Z,26.60
2019-06-27T08:29:51.554Z,26.50
2019-06-27T08:32:21.316Z,26.50
2019-06-27T08:34:50.828Z,26.60
2019-06-27T08:37:20.559Z,26.70
2019-06-27T08:39:51.637Z,26.70
2019-06-27T08:42:21.393Z,26.90
2019-06-27T08:44:50.915Z,27.00
2019-06-27T08:47:20.478Z,27.30
2019-06-27T08:49:49.874Z,27.40
2019-06-27T08:52:19.360Z,27.60
2019-06-27T08:54:48.917Z,27.60
2019-06-27T08:57:18.479Z,27.50
2019-06-27T08:59:47.940Z,27.60
2019-06-27T09:02:17.394Z,27.50
2019-06-27T09:04:46.847Z,27.60
2019-06-27T09:07:16.379Z,27.60
2019-06-27T09:09:46.149Z,27.60
2019-06-27T09:12:15.597Z,27.70
2019-06-27T09:14:45.331Z,27.60
2019-06-27T09:17:15.108Z,27.30
2019-06-27T09:19:44.564Z,27.60
2019-06-27T09:22:14.988Z,27.50
2019-06-27T09:24:44.362Z,27.90
2019-06-27T09:27:14.030Z,28.00
2019-06-27T09:29:43.406Z,28.00
2019-06-27T09:32:24.908Z,28.10
2019-06-27T09:34:44.450Z,28.10
2019-06-27T09:37:14.018Z,28.40
2019-06-27T09:39:43.873Z,28.60
2019-06-27T09:42:13.403Z,28.70
2019-06-27T09:44:42.695Z,28.50
2019-06-27T09:47:12.136Z,28.50
2019-06-27T09:49:41.679Z,28.50
2019-06-27T09:52:11.322Z,28.50
2019-06-27T09:54:40.680Z,28.80
2019-06-27T09:57:10.175Z,28.80
2019-06-27T09:59:39.747Z,28.50
2019-06-27T10:02:09.410Z,28.70
2019-06-27T10:04:38.914Z,28.90
2019-06-27T10:07:08.614Z,28.80
2019-06-27T10:09:38.110Z,29.20
2019-06-27T10:12:07.497Z,29.40
2019-06-27T10:14:37.152Z,29.10
2019-06-27T10:17:06.746Z,29.10
2019-06-27T10:19:36.489Z,29.00
2019-06-27T10:22:05.907Z,29.20
2019-06-27T10:24:35.675Z,29.40
2019-06-27T10:27:05.689Z,29.40
2019-06-27T10:29:35.492Z,29.40
2019-06-27T10:32:05.009Z,29.60
2019-06-27T10:34:37.434Z,29.80
2019-06-27T10:37:06.925Z,29.90
2019-06-27T10:39:36.589Z,30.00
2019-06-27T10:42:06.350Z,30.00
2019-06-27T10:44:36.406Z,29.80
2019-06-27T10:47:06.001Z,29.70
2019-06-27T10:49:35.763Z,29.70
2019-06-27T10:52:05.248Z,29.60
2019-06-27T10:54:34.920Z,29.50
2019-06-27T10:57:04.265Z,29.90
2019-06-27T10:59:33.929Z,30.00
2019-06-27T11:02:03.349Z,30.30
2019-06-27T11:04:32.952Z,30.30
2019-06-27T11:07:02.526Z,30.40
2019-06-27T11:09:32.453Z,30.60
2019-06-27T11:12:02.826Z,30.80
2019-06-27T11:14:32.278Z,31.10
2019-06-27T11:17:01.837Z,31.50
2019-06-27T11:19:31.416Z,31.50
2019-06-27T11:22:01.155Z,31.40
2019-06-27T11:24:30.763Z,31.80
2019-06-27T11:27:00.897Z,31.60
2019-06-27T11:29:30.631Z,31.90
2019-06-27T11:32:00.051Z,31.80
2019-06-27T11:34:29.466Z,31.60
2019-06-27T11:36:58.840Z,32.00
2019-06-27T11:39:28.383Z,32.30
2019-06-27T11:41:58.117Z,32.10
2019-06-27T11:44:27.903Z,32.00
2019-06-27T11:46:57.316Z,32.10
2019-06-27T11:49:26.788Z,32.30
2019-06-27T11:51:56.140Z,32.30
2019-06-27T11:54:25.690Z,32.50
2019-06-27T11:56:55.184Z,32.30
2019-06-27T11:59:24.876Z,32.30
2019-06-27T12:01:54.456Z,32.50
2019-06-27T12:04:23.896Z,32.50
2019-06-27T12:06:53.342Z,32.30
2019-06-27T12:09:22.983Z,32.20
2019-06-27T12:11:52.807Z,32.50
2019-06-27T12:14:22.472Z,32.50
2019-06-27T12:16:51.921Z,32.60
2019-06-27T12:19:21.301Z,32.70
2019-06-27T12:21:50.844Z,32.70
2019-06-27T12:24:20.369Z,32.80
2019-06-27T12:26:49.799Z,32.70
2019-06-27T12:29:19.386Z,32.70
2019-06-27T12:31:51.569Z,32.90
2019-06-27T12:34:20.360Z,33.30
2019-06-27T12:36:50.495Z,33.40
2019-06-27T12:39:19.869Z,33.50
2019-06-27T12:41:49.383Z,33.30
2019-06-27T12:44:18.975Z,33.00
2019-06-27T12:46:48.771Z,33.50
2019-06-27T12:49:18.617Z,33.10
2019-06-27T12:51:48.244Z,33.40
2019-06-27T12:54:17.708Z,33.40
2019-06-27T12:56:47.248Z,33.70
2019-06-27T12:59:16.856Z,33.90
2019-06-27T13:01:46.373Z,33.60
2019-06-27T13:04:23.659Z,33.90
2019-06-27T13:06:47.100Z,34.20
2019-06-27T13:09:16.480Z,34.10
2019-06-27T13:11:46.090Z,33.70
2019-06-27T13:14:15.469Z,33.80
2019-06-27T13:16:44.987Z,33.70
2019-06-27T13:19:14.388Z,34.00
2019-06-27T13:21:44.027Z,34.50
2019-06-27T13:24:13.449Z,34.20
2019-06-27T13:26:43.172Z,34.10
2019-06-27T13:29:12.666Z,34.30
2019-06-27T13:31:42.012Z,34.30
2019-06-27T13:34:11.662Z,34.50
2019-06-27T13:36:41.263Z,34.70
2019-06-27T13:39:10.846Z,35.30
2019-06-27T13:41:42.923Z,35.20
2019-06-27T13:44:12.405Z,35.00
2019-06-27T13:46:42.009Z,34.60
2019-06-27T13:49:11.554Z,34.00
2019-06-27T13:51:41.063Z,34.00
2019-06-27T13:54:11.104Z,34.50
2019-06-27T13:56:40.591Z,35.30
2019-06-27T13:59:10.105Z,35.90
2019-06-27T14:01:39.785Z,36.30
2019-06-27T14:04:09.465Z,36.70
2019-06-27T14:06:41.391Z,37.00
2019-06-27T14:09:22.434Z,37.50
2019-06-27T14:11:41.866Z,38.00
2019-06-27T14:14:11.649Z,38.30
2019-06-27T14:16:41.411Z,38.90
2019-06-27T14:19:11.120Z,39.70
2019-06-27T14:21:40.780Z,39.30
2019-06-27T14:24:10.291Z,39.30
2019-06-27T14:26:39.911Z,39.50
2019-06-27T14:29:09.487Z,38.90
2019-06-27T14:31:38.918Z,38.10
2019-06-27T14:34:08.611Z,38.20
2019-06-27T14:36:38.216Z,38.30
2019-06-27T14:39:08.189Z,38.20
2019-06-27T14:41:37.595Z,38.40
2019-06-27T14:44:07.220Z,38.50
2019-06-27T14:46:37.618Z,38.20
2019-06-27T14:49:07.102Z,39.10
2019-06-27T14:51:36.445Z,39.20
2019-06-27T14:54:05.888Z,39.30
2019-06-27T14:56:35.409Z,39.50
2019-06-27T14:59:04.964Z,39.80
2019-06-27T15:01:34.443Z,40.20
2019-06-27T15:04:04.032Z,40.50
2019-06-27T15:06:33.623Z,39.80
2019-06-27T15:09:03.579Z,39.90
2019-06-27T15:11:33.225Z,40.40
2019-06-27T15:14:02.845Z,41.20
2019-06-27T15:16:32.480Z,40.70
2019-06-27T15:19:01.931Z,40.20
2019-06-27T15:21:32.018Z,39.90
2019-06-27T15:24:02.285Z,39.80
2019-06-27T15:26:31.978Z,39.80
2019-06-27T15:29:01.495Z,40.10
2019-06-27T15:31:31.284Z,40.20
2019-06-27T15:34:00.727Z,40.60
2019-06-27T15:36:30.217Z,40.20
2019-06-27T15:38:59.922Z,39.50
2019-06-27T15:41:29.461Z,39.80
2019-06-27T15:43:58.997Z,40.10
2019-06-27T15:46:28.379Z,40.00
2019-06-27T15:48:57.949Z,40.20
2019-06-27T15:51:27.472Z,40.00
2019-06-27T15:53:57.258Z,40.00
2019-06-27T15:56:26.739Z,40.20
2019-06-27T15:58:56.303Z,40.90
2019-06-27T16:01:26.034Z,40.30
2019-06-27T16:03:55.898Z,39.50
2019-06-27T16:06:25.643Z,38.90
2019-06-27T16:08:55.290Z,40.20
2019-06-27T16:11:24.867Z,40.30
2019-06-27T16:13:54.462Z,40.00
2019-06-27T16:16:23.835Z,39.00
2019-06-27T16:18:54.204Z,39.10
2019-06-27T16:21:23.982Z,38.80
2019-06-27T16:23:53.690Z,38.70
2019-06-27T16:26:23.181Z,38.80
2019-06-27T16:28:52.575Z,38.70
2019-06-27T16:31:22.074Z,39.20
2019-06-27T16:33:51.737Z,39.60
2019-06-27T16:36:25.253Z,39.60
2019-06-27T16:38:52.706Z,39.70
2019-06-27T16:41:22.240Z,40.20
2019-06-27T16:43:51.859Z,40.00
2019-06-27T16:46:23.660Z,39.50
2019-06-27T16:48:53.300Z,39.10
2019-06-27T16:51:22.811Z,39.30
2019-06-27T16:53:52.302Z,38.90
2019-06-27T16:56:21.718Z,38.60
2019-06-27T16:58:51.428Z,39.30
2019-06-27T17:01:21.356Z,39.50
2019-06-27T17:03:50.980Z,39.00
2019-06-27T17:06:20.967Z,38.90
2019-06-27T17:08:50.592Z,37.80
2019-06-27T17:11:20.336Z,37.60
2019-06-27T17:13:49.803Z,36.60
2019-06-27T17:16:22.234Z,37.10
2019-06-27T17:18:50.578Z,37.40
2019-06-27T17:21:20.152Z,37.40
2019-06-27T17:23:49.801Z,37.10
2019-06-27T17:26:19.245Z,37.20
2019-06-27T17:28:48.707Z,37.20
2019-06-27T17:31:18.610Z,37.20
2019-06-27T17:33:48.418Z,37.50
2019-06-27T17:36:17.886Z,37.60
2019-06-27T17:38:47.872Z,38.30
2019-06-27T17:41:17.374Z,37.60
2019-06-27T17:43:46.910Z,37.20
2019-06-27T17:46:16.366Z,36.80
2019-06-27T17:48:46.503Z,36.60
2019-06-27T17:51:16.026Z,36.30
2019-06-27T17:53:45.530Z,36.50
2019-06-27T17:56:14.963Z,35.80
2019-06-27T17:58:44.444Z,35.70
2019-06-27T18:01:14.011Z,35.80
2019-06-27T18:03:43.511Z,35.80
2019-06-27T18:06:13.136Z,35.30
2019-06-27T18:08:42.565Z,35.00
2019-06-27T18:11:12.207Z,33.90
2019-06-27T18:13:41.705Z,32.70
2019-06-27T18:16:11.124Z,31.70
2019-06-27T18:18:40.687Z,31.00
2019-06-27T18:21:10.259Z,30.40
2019-06-27T18:23:39.660Z,30.10
2019-06-27T18:26:09.227Z,29.70
2019-06-27T18:28:38.737Z,29.40
2019-06-27T18:31:08.224Z,29.10
2019-06-27T18:33:37.791Z,28.90
2019-06-27T18:36:07.355Z,28.50
2019-06-27T18:38:38.080Z,28.30
2019-06-27T18:41:07.516Z,27.90
2019-06-27T18:43:36.983Z,27.70
2019-06-27T18:46:06.450Z,27.50
2019-06-27T18:48:35.944Z,27.10
2019-06-27T18:51:06.129Z,27.10
2019-06-27T18:53:35.651Z,26.90
2019-06-27T18:56:05.715Z,26.90
2019-06-27T18:58:35.348Z,26.70
2019-06-27T19:01:04.870Z,26.50
2019-06-27T19:03:34.363Z,26.20
2019-06-27T19:06:03.954Z,26.00
2019-06-27T19:08:33.545Z,25.70
2019-06-27T19:11:03.089Z,25.60
2019-06-27T19:13:32.670Z,25.30
2019-06-27T19:16:02.489Z,25.00
2019-06-27T19:18:45.731Z,24.70
2019-06-27T19:21:21.433Z,24.40
2019-06-27T19:24:05.458Z,24.10
2019-06-27T19:26:34.966Z,23.80
2019-06-27T19:29:04.501Z,23.50
2019-06-27T19:31:34.060Z,23.30
2019-06-27T19:34:03.593Z,23.00
2019-06-27T19:36:33.086Z,22.80
2019-06-27T19:39:02.663Z,22.60
2019-06-27T19:41:32.091Z,22.40
2019-06-27T19:44:01.611Z,22.10
2019-06-27T19:46:31.238Z,22.00
2019-06-27T19:49:00.720Z,21.80
2019-06-27T19:51:30.169Z,21.60
2019-06-27T19:53:59.678Z,21.40
2019-06-27T19:56:29.148Z,21.20
2019-06-27T19:58:58.637Z,21.00
2019-06-27T20:01:28.126Z,20.90
2019-06-27T20:03:57.646Z,20.80
2019-06-27T20:06:27.117Z,20.70
2019-06-27T20:08:56.729Z,20.60
2019-06-27T20:11:26.268Z,20.50
2019-06-27T20:13:55.843Z,20.40
2019-06-27T20:16:25.230Z,20.20
2019-06-27T20:18:54.733Z,20.00
2019-06-27T20:21:24.265Z,19.80
2019-06-27T20:23:53.779Z,19.70
2019-06-27T20:26:23.245Z,19.70
2019-06-27T20:28:52.812Z,19.50
2019-06-27T20:31:22.624Z,19.40
2019-06-27T20:33:52.039Z,19.30
2019-06-27T20:36:21.573Z,19.30
2019-06-27T20:38:51.122Z,19.30
2019-06-27T20:41:20.592Z,19.20
2019-06-27T20:43:50.130Z,19.10
2019-06-27T20:46:19.886Z,18.70
2019-06-27T20:48:49.338Z,18.50
2019-06-27T20:51:18.958Z,18.40
2019-06-27T20:53:48.504Z,18.30
2019-06-27T20:56:18.049Z,18.30
2019-06-27T20:58:47.444Z,18.30
2019-06-27T21:01:17.094Z,18.20
2019-06-27T21:03:46.682Z,18.00
2019-06-27T21:06:16.209Z,17.90
2019-06-27T21:08:51.174Z,17.80
2019-06-27T21:11:17.367Z,17.70
2019-06-27T21:13:46.951Z,17.60
2019-06-27T21:16:16.515Z,17.50
2019-06-27T21:18:45.886Z,17.50
2019-06-27T21:21:15.509Z,17.40
2019-06-27T21:23:44.894Z,17.30
2019-06-27T21:26:14.448Z,17.20
2019-06-27T21:28:44.012Z,17.10
2019-06-27T21:31:13.857Z,16.80
2019-06-27T21:33:43.241Z,16.70
2019-06-27T21:36:12.652Z,16.60
2019-06-27T21:38:42.352Z,16.50
2019-06-27T21:41:11.743Z,16.40
2019-06-27T21:43:41.372Z,16.40
2019-06-27T21:46:10.878Z,16.30
2019-06-27T21:48:40.402Z,16.30
2019-06-27T21:51:11.713Z,16.30
2019-06-27T21:53:41.216Z,16.30
2019-06-27T21:56:11.048Z,16.20
2019-06-27T21:58:40.472Z,16.20
2019-06-27T22:01:10.023Z,16.00
2019-06-27T22:03:39.492Z,16.00
2019-06-27T22:06:09.023Z,15.80
2019-06-27T22:08:39.615Z,15.80
2019-06-27T22:11:09.144Z,15.70
2019-06-27T22:13:41.328Z,15.50
2019-06-27T22:16:10.936Z,15.50
2019-06-27T22:18:40.532Z,15.40
2019-06-27T22:21:10.036Z,15.30
2019-06-27T22:23:39.641Z,15.30
2019-06-27T22:26:09.140Z,15.30
2019-06-27T22:28:38.613Z,15.20
2019-06-27T22:31:08.056Z,15.20
2019-06-27T22:33:37.736Z,15.10
2019-06-27T22:36:07.454Z,14.90
2019-06-27T22:38:54.771Z,15.00
2019-06-27T22:41:41.953Z,14.90
2019-06-27T22:44:29.170Z,14.80
2019-06-27T22:47:16.747Z,14.90
2019-06-27T22:49:46.370Z,14.90
2019-06-27T22:52:47.321Z,14.70
2019-06-27T22:55:20.239Z,14.60
2019-06-27T22:57:49.598Z,14.60
2019-06-27T23:00:19.196Z,14.50
2019-06-27T23:02:48.586Z,14.40
2019-06-27T23:05:18.148Z,14.30
2019-06-27T23:07:47.610Z,14.30
2019-06-27T23:10:17.075Z,14.30
2019-06-27T23:12:46.582Z,14.20
2019-06-27T23:15:16.106Z,14.20
2019-06-27T23:17:46.003Z,14.10
2019-06-27T23:20:15.758Z,14.00
2019-06-27T23:22:45.115Z,13.90
2019-06-27T23:25:14.509Z,14.00
2019-06-27T23:27:43.924Z,13.90
2019-06-27T23:30:13.390Z,13.90
2019-06-27T23:32:42.950Z,13.70
2019-06-27T23:35:12.790Z,13.50
2019-06-27T23:37:42.341Z,13.50
2019-06-27T23:40:14.509Z,13.50
2019-06-27T23:42:43.063Z,13.50
2019-06-27T23:45:12.818Z,13.50
2019-06-27T23:47:42.266Z,13.40
2019-06-27T23:50:12.175Z,13.30
2019-06-27T23:52:41.476Z,13.30
2019-06-27T23:55:11.659Z,13.20
2019-06-27T23:57:41.017Z,13.20
